sensor_id;sensor_type;location;lat;lon;timestamp;pressure;altitude;pressure_sealevel;temperature;humidity
44825;BME280;30542;47.928;2.138;2023-03-19T00:03:54;100122.31;;;18.78;52.85
44825;BME280;30542;47.928;2.138;2023-03-19T00:08:55;100127.94;;;18.81;53.15
44825;BME280;30542;47.928;2.138;2023-03-19T00:13:55;100126.34;;;18.80;52.65
44825;BME280;30542;47.928;2.138;2023-03-19T00:18:56;100128.22;;;18.80;52.93
44825;BME280;30542;47.928;2.138;2023-03-19T00:23:57;100131.94;;;18.79;52.98
44825;BME280;30542;47.928;2.138;2023-03-19T00:29:02;100134.84;;;18.77;53.01
44825;BME280;30542;47.928;2.138;2023-03-19T00:34:03;100135.13;;;18.76;52.56
44825;BME280;30542;47.928;2.138;2023-03-19T00:39:04;100137.00;;;18.75;52.76
44825;BME280;30542;47.928;2.138;2023-03-19T00:44:05;100145.25;;;18.74;52.80
44825;BME280;30542;47.928;2.138;2023-03-19T00:49:05;100157.78;;;18.73;52.60
44825;BME280;30542;47.928;2.138;2023-03-19T00:54:06;100162.31;;;18.73;52.47
44825;BME280;30542;47.928;2.138;2023-03-19T00:59:06;100159.91;;;18.71;52.91
44825;BME280;30542;47.928;2.138;2023-03-19T01:04:07;100174.84;;;18.72;52.81
44825;BME280;30542;47.928;2.138;2023-03-19T01:09:07;100173.50;;;18.70;52.43
44825;BME280;30542;47.928;2.138;2023-03-19T01:14:08;100177.22;;;18.69;52.40
44825;BME280;30542;47.928;2.138;2023-03-19T01:19:09;100167.84;;;18.66;52.73
44825;BME280;30542;47.928;2.138;2023-03-19T01:24:09;100166.53;;;18.69;52.34
44825;BME280;30542;47.928;2.138;2023-03-19T01:29:09;100162.50;;;18.66;52.35
44825;BME280;30542;47.928;2.138;2023-03-19T01:34:10;100161.72;;;18.66;52.36
44825;BME280;30542;47.928;2.138;2023-03-19T01:39:10;100158.50;;;18.63;52.42
44825;BME280;30542;47.928;2.138;2023-03-19T01:44:32;100141.44;;;18.64;52.11
44825;BME280;30542;47.928;2.138;2023-03-19T01:49:33;100153.19;;;18.63;52.82
44825;BME280;30542;47.928;2.138;2023-03-19T01:54:34;100117.28;;;18.34;52.44
44825;BME280;30542;47.928;2.138;2023-03-19T01:59:40;100154.47;;;18.61;52.09
44825;BME280;30542;47.928;2.138;2023-03-19T02:04:43;100143.50;;;18.52;52.08
44825;BME280;30542;47.928;2.138;2023-03-19T02:09:45;100152.09;;;18.59;51.90
44825;BME280;30542;47.928;2.138;2023-03-19T02:14:46;100156.84;;;18.57;52.08
44825;BME280;30542;47.928;2.138;2023-03-19T02:24:58;100156.06;;;18.57;52.35
44825;BME280;30542;47.928;2.138;2023-03-19T02:30:16;100160.09;;;18.59;51.78
44825;BME280;30542;47.928;2.138;2023-03-19T02:35:17;100147.22;;;18.51;51.99
44825;BME280;30542;47.928;2.138;2023-03-19T02:40:26;100156.31;;;18.55;51.94
44825;BME280;30542;47.928;2.138;2023-03-19T02:45:30;100166.44;;;18.53;52.36
44825;BME280;30542;47.928;2.138;2023-03-19T02:50:31;100166.16;;;18.50;51.78
44825;BME280;30542;47.928;2.138;2023-03-19T02:55:31;100165.34;;;18.49;52.42
44825;BME280;30542;47.928;2.138;2023-03-19T03:00:32;100163.78;;;18.53;52.03
44825;BME280;30542;47.928;2.138;2023-03-19T03:05:33;100160.00;;;18.49;52.40
44825;BME280;30542;47.928;2.138;2023-03-19T03:10:33;100161.06;;;18.48;51.98
44825;BME280;30542;47.928;2.138;2023-03-19T03:15:34;100157.34;;;18.49;51.92
44825;BME280;30542;47.928;2.138;2023-03-19T03:20:35;100166.41;;;18.48;52.27
44825;BME280;30542;47.928;2.138;2023-03-19T03:25:36;100157.88;;;18.46;52.52
44825;BME280;30542;47.928;2.138;2023-03-19T03:30:37;100169.06;;;18.48;51.94
44825;BME280;30542;47.928;2.138;2023-03-19T03:35:38;100154.63;;;18.39;52.08
44825;BME280;30542;47.928;2.138;2023-03-19T03:40:38;100166.88;;;18.40;52.33
44825;BME280;30542;47.928;2.138;2023-03-19T03:45:39;100159.41;;;18.37;52.15
44825;BME280;30542;47.928;2.138;2023-03-19T03:50:39;100180.22;;;18.40;52.28
44825;BME280;30542;47.928;2.138;2023-03-19T03:55:40;100190.88;;;18.40;52.40
44825;BME280;30542;47.928;2.138;2023-03-19T04:00:41;100188.72;;;18.37;51.93
44825;BME280;30542;47.928;2.138;2023-03-19T04:05:42;100201.56;;;18.40;52.41
44825;BME280;30542;47.928;2.138;2023-03-19T04:10:43;100189.25;;;18.34;52.21
44825;BME280;30542;47.928;2.138;2023-03-19T04:15:43;100196.19;;;18.35;52.44
44825;BME280;30542;47.928;2.138;2023-03-19T04:20:44;100193.03;;;18.38;52.00
44825;BME280;30542;47.928;2.138;2023-03-19T04:25:44;100198.59;;;18.36;51.84
44825;BME280;30542;47.928;2.138;2023-03-19T04:30:45;100215.66;;;18.35;52.06
44825;BME280;30542;47.928;2.138;2023-03-19T04:35:47;100215.38;;;18.37;51.90
44825;BME280;30542;47.928;2.138;2023-03-19T04:40:47;100226.06;;;18.37;52.23
44825;BME280;30542;47.928;2.138;2023-03-19T04:45:48;100224.97;;;18.33;52.37
44825;BME280;30542;47.928;2.138;2023-03-19T04:50:48;100227.63;;;18.33;52.01
44825;BME280;30542;47.928;2.138;2023-03-19T04:55:51;100223.88;;;18.29;51.82
44825;BME280;30542;47.928;2.138;2023-03-19T05:00:51;100228.38;;;18.28;51.98
44825;BME280;30542;47.928;2.138;2023-03-19T05:05:53;100225.72;;;18.28;52.29
44825;BME280;30542;47.928;2.138;2023-03-19T05:10:54;100237.22;;;18.29;51.88
44825;BME280;30542;47.928;2.138;2023-03-19T05:15:54;100147.94;;;17.72;52.18
44825;BME280;30542;47.928;2.138;2023-03-19T05:20:55;100235.28;;;18.24;52.16
44825;BME280;30542;47.928;2.138;2023-03-19T05:25:58;100240.63;;;18.24;52.33
44825;BME280;30542;47.928;2.138;2023-03-19T05:31:01;100245.94;;;18.24;51.86
44825;BME280;30542;47.928;2.138;2023-03-19T05:36:02;100251.28;;;18.24;52.32
44825;BME280;30542;47.928;2.138;2023-03-19T05:41:04;100245.44;;;18.27;51.84
44825;BME280;30542;47.928;2.138;2023-03-19T05:46:04;100245.22;;;18.29;51.89
44825;BME280;30542;47.928;2.138;2023-03-19T05:51:05;100248.22;;;18.37;52.11
44825;BME280;30542;47.928;2.138;2023-03-19T05:56:05;100241.84;;;18.44;51.66
44825;BME280;30542;47.928;2.138;2023-03-19T06:01:06;100250.22;;;18.57;51.75
44825;BME280;30542;47.928;2.138;2023-03-19T06:06:06;100254.53;;;18.63;51.78
44825;BME280;30542;47.928;2.138;2023-03-19T06:11:07;100263.97;;;18.71;51.45
44825;BME280;30542;47.928;2.138;2023-03-19T06:16:08;100260.50;;;18.71;51.28
44825;BME280;30542;47.928;2.138;2023-03-19T06:21:08;100253.03;;;18.73;51.44
44825;BME280;30542;47.928;2.138;2023-03-19T06:26:09;100274.47;;;18.83;50.98
44825;BME280;30542;47.928;2.138;2023-03-19T06:31:09;100278.22;;;18.87;51.08
44825;BME280;30542;47.928;2.138;2023-03-19T06:36:10;100291.03;;;18.90;50.99
44825;BME280;30542;47.928;2.138;2023-03-19T06:41:10;100287.34;;;18.96;51.03
44825;BME280;30542;47.928;2.138;2023-03-19T06:46:11;100295.66;;;19.00;51.32
44825;BME280;30542;47.928;2.138;2023-03-19T06:51:12;100290.56;;;19.03;51.24
44825;BME280;30542;47.928;2.138;2023-03-19T06:56:12;100298.63;;;19.08;50.84
44825;BME280;30542;47.928;2.138;2023-03-19T07:01:12;100300.25;;;19.09;51.15
44825;BME280;30542;47.928;2.138;2023-03-19T07:06:13;100302.34;;;19.07;51.24
44825;BME280;30542;47.928;2.138;2023-03-19T07:11:14;100310.13;;;19.14;51.04
44825;BME280;30542;47.928;2.138;2023-03-19T07:16:15;100309.63;;;19.17;51.10
44825;BME280;30542;47.928;2.138;2023-03-19T07:21:15;100309.63;;;19.17;50.93
44825;BME280;30542;47.928;2.138;2023-03-19T07:26:16;100321.13;;;19.23;51.27
44825;BME280;30542;47.928;2.138;2023-03-19T07:31:17;100327.03;;;19.25;51.32
44825;BME280;30542;47.928;2.138;2023-03-19T07:36:17;100333.97;;;19.26;51.07
44825;BME280;30542;47.928;2.138;2023-03-19T07:41:18;100336.38;;;19.27;51.27
44825;BME280;30542;47.928;2.138;2023-03-19T07:46:18;100338.81;;;19.29;50.95
44825;BME280;30542;47.928;2.138;2023-03-19T07:51:19;100330.53;;;19.30;51.14
44825;BME280;30542;47.928;2.138;2023-03-19T07:56:19;100348.44;;;19.30;51.04
44825;BME280;30542;47.928;2.138;2023-03-19T08:01:20;100351.34;;;19.28;50.75
44825;BME280;30542;47.928;2.138;2023-03-19T08:06:20;100360.19;;;19.34;50.83
44825;BME280;30542;47.928;2.138;2023-03-19T08:11:21;100365.28;;;19.35;51.21
44825;BME280;30542;47.928;2.138;2023-03-19T08:16:21;100366.88;;;19.36;50.92
44825;BME280;30542;47.928;2.138;2023-03-19T08:21:21;100369.03;;;19.40;50.88
44825;BME280;30542;47.928;2.138;2023-03-19T08:26:22;100375.19;;;19.40;51.29
44825;BME280;30542;47.928;2.138;2023-03-19T08:31:22;100382.94;;;19.42;51.22
44825;BME280;30542;47.928;2.138;2023-03-19T08:36:22;100384.56;;;19.43;51.00
44825;BME280;30542;47.928;2.138;2023-03-19T08:41:23;100384.25;;;19.39;50.98
44825;BME280;30542;47.928;2.138;2023-03-19T08:46:24;100393.63;;;19.42;51.11
44825;BME280;30542;47.928;2.138;2023-03-19T08:51:26;100407.53;;;19.44;51.05
44825;BME280;30542;47.928;2.138;2023-03-19T08:56:28;100411.00;;;19.44;50.53
44825;BME280;30542;47.928;2.138;2023-03-19T09:01:28;100420.66;;;19.45;50.62
44825;BME280;30542;47.928;2.138;2023-03-19T09:06:29;100429.19;;;19.47;50.78
44825;BME280;30542;47.928;2.138;2023-03-19T09:11:30;100427.09;;;19.49;50.89
44825;BME280;30542;47.928;2.138;2023-03-19T09:16:30;100436.19;;;19.53;50.76
44825;BME280;30542;47.928;2.138;2023-03-19T09:21:31;100449.56;;;19.58;50.73
44825;BME280;30542;47.928;2.138;2023-03-19T09:26:31;100456.53;;;19.59;50.75
44825;BME280;30542;47.928;2.138;2023-03-19T09:31:32;100467.78;;;19.61;51.08
44825;BME280;30542;47.928;2.138;2023-03-19T09:36:32;100463.81;;;19.69;51.30
44825;BME280;30542;47.928;2.138;2023-03-19T09:41:54;100470.78;;;19.70;50.93
44825;BME280;30542;47.928;2.138;2023-03-19T09:57:14;100459.31;;;19.75;50.62
44825;BME280;30542;47.928;2.138;2023-03-19T10:02:37;100456.66;;;19.75;50.89
44825;BME280;30542;47.928;2.138;2023-03-19T10:23:23;100455.09;;;19.84;53.40
44825;BME280;30542;47.928;2.138;2023-03-19T10:28:28;100460.97;;;19.86;53.61
44825;BME280;30542;47.928;2.138;2023-03-19T10:38:58;100461.28;;;19.95;52.03
44825;BME280;30542;47.928;2.138;2023-03-19T10:44:05;100477.38;;;20.05;51.86
44825;BME280;30542;47.928;2.138;2023-03-19T10:49:13;100483.03;;;20.08;52.07
44825;BME280;30542;47.928;2.138;2023-03-19T10:54:25;100479.00;;;20.06;52.49
44825;BME280;30542;47.928;2.138;2023-03-19T11:04:29;100479.28;;;20.09;52.78
44825;BME280;30542;47.928;2.138;2023-03-19T11:09:33;100482.75;;;20.10;52.71
44825;BME280;30542;47.928;2.138;2023-03-19T11:14:38;100482.22;;;20.08;52.98
44825;BME280;30542;47.928;2.138;2023-03-19T11:19:54;100488.09;;;20.10;53.40
44825;BME280;30542;47.928;2.138;2023-03-19T11:24:59;100477.97;;;20.12;53.55
44825;BME280;30542;47.928;2.138;2023-03-19T11:30:02;100479.00;;;20.11;53.73
44825;BME280;30542;47.928;2.138;2023-03-19T11:35:29;100469.09;;;20.06;54.34
44825;BME280;30542;47.928;2.138;2023-03-19T11:40:42;100488.91;;;20.10;54.27
44825;BME280;30542;47.928;2.138;2023-03-19T11:56:47;100488.00;;;19.95;55.56
44825;BME280;30542;47.928;2.138;2023-03-19T12:02:20;100486.41;;;19.94;55.43
44825;BME280;30542;47.928;2.138;2023-03-19T12:12:53;100475.44;;;19.90;55.66
44825;BME280;30542;47.928;2.138;2023-03-19T12:28:30;100521.59;;;19.75;55.97
44825;BME280;30542;47.928;2.138;2023-03-19T12:39:05;100536.50;;;19.66;56.05
44825;BME280;30542;47.928;2.138;2023-03-19T12:49:28;100545.75;;;19.58;56.70
44825;BME280;30542;47.928;2.138;2023-03-19T12:54:35;100547.38;;;19.59;56.74
44825;BME280;30542;47.928;2.138;2023-03-19T12:59:49;100542.53;;;19.56;56.69
44825;BME280;30542;47.928;2.138;2023-03-19T13:05:15;100549.72;;;19.56;56.67
44825;BME280;30542;47.928;2.138;2023-03-19T13:10:22;100542.50;;;19.51;56.82
44825;BME280;30542;47.928;2.138;2023-03-19T13:25:47;100547.03;;;19.51;56.55
44825;BME280;30542;47.928;2.138;2023-03-19T13:30:59;100557.41;;;19.47;56.43
44825;BME280;30542;47.928;2.138;2023-03-19T13:36:03;100545.31;;;19.40;56.56
44825;BME280;30542;47.928;2.138;2023-03-19T13:41:04;100551.47;;;19.40;56.51
44825;BME280;30542;47.928;2.138;2023-03-19T13:56:14;100556.72;;;19.30;56.76
44825;BME280;30542;47.928;2.138;2023-03-19T14:06:31;100533.66;;;19.19;56.78
44825;BME280;30542;47.928;2.138;2023-03-19T14:11:35;100547.03;;;19.24;56.85
44825;BME280;30542;47.928;2.138;2023-03-19T14:16:41;100536.53;;;19.12;56.79
44825;BME280;30542;47.928;2.138;2023-03-19T14:27:16;100561.69;;;19.16;56.25
44825;BME280;30542;47.928;2.138;2023-03-19T14:32:37;100556.34;;;19.16;56.52
44825;BME280;30542;47.928;2.138;2023-03-19T14:37:47;100542.84;;;19.01;56.55
44825;BME280;30542;47.928;2.138;2023-03-19T14:53:36;100583.22;;;19.09;55.96
44825;BME280;30542;47.928;2.138;2023-03-19T14:58:57;100590.66;;;19.07;56.15
44825;BME280;30542;47.928;2.138;2023-03-19T15:04:04;100594.00;;;19.20;55.56
44825;BME280;30542;47.928;2.138;2023-03-19T15:09:33;100584.72;;;19.27;55.70
44825;BME280;30542;47.928;2.138;2023-03-19T15:20:19;100600.25;;;19.30;55.27
44825;BME280;30542;47.928;2.138;2023-03-19T15:25:20;100600.00;;;19.32;55.50
44825;BME280;30542;47.928;2.138;2023-03-19T15:30:40;100597.63;;;19.35;55.25
44825;BME280;30542;47.928;2.138;2023-03-19T15:35:41;100597.63;;;19.35;55.37
44825;BME280;30542;47.928;2.138;2023-03-19T15:40:42;100589.28;;;19.27;55.06
44825;BME280;30542;47.928;2.138;2023-03-19T15:45:46;100619.31;;;19.39;55.30
44825;BME280;30542;47.928;2.138;2023-03-19T15:50:54;100613.16;;;19.38;55.19
44825;BME280;30542;47.928;2.138;2023-03-19T15:55:55;100622.56;;;19.41;54.94
44825;BME280;30542;47.928;2.138;2023-03-19T16:00:58;100628.94;;;19.40;55.32
44825;BME280;30542;47.928;2.138;2023-03-19T16:06:05;100630.25;;;19.37;55.23
44825;BME280;30542;47.928;2.138;2023-03-19T16:16:33;100637.25;;;19.44;54.84
44825;BME280;30542;47.928;2.138;2023-03-19T16:21:38;100645.84;;;19.46;54.69
44825;BME280;30542;47.928;2.138;2023-03-19T16:26:41;100667.34;;;19.34;54.54
44825;BME280;30542;47.928;2.138;2023-03-19T16:31:44;100670.63;;;19.41;54.49
44825;BME280;30542;47.928;2.138;2023-03-19T16:36:45;100678.38;;;19.43;54.54
44825;BME280;30542;47.928;2.138;2023-03-19T16:42:14;100685.59;;;19.42;54.76
44825;BME280;30542;47.928;2.138;2023-03-19T16:47:15;100692.00;;;19.41;54.48
44825;BME280;30542;47.928;2.138;2023-03-19T16:52:19;100678.56;;;19.36;54.34
44825;BME280;30542;47.928;2.138;2023-03-19T16:57:21;100693.59;;;19.42;54.40
44825;BME280;30542;47.928;2.138;2023-03-19T17:02:22;100701.13;;;19.45;54.74
44825;BME280;30542;47.928;2.138;2023-03-19T17:07:22;100707.28;;;19.46;54.59
44825;BME280;30542;47.928;2.138;2023-03-19T17:12:22;100719.31;;;19.48;54.83
44825;BME280;30542;47.928;2.138;2023-03-19T17:17:23;100722.50;;;19.45;54.75
44825;BME280;30542;47.928;2.138;2023-03-19T17:22:23;100738.00;;;19.48;54.84
44825;BME280;30542;47.928;2.138;2023-03-19T17:27:26;100748.47;;;19.50;54.71
44825;BME280;30542;47.928;2.138;2023-03-19T17:32:27;100747.88;;;19.48;54.71
44825;BME280;30542;47.928;2.138;2023-03-19T17:37:29;100750.88;;;19.51;55.58
44825;BME280;30542;47.928;2.138;2023-03-19T17:42:30;100759.94;;;19.50;55.67
44825;BME280;30542;47.928;2.138;2023-03-19T17:47:32;100766.59;;;19.48;55.92
44825;BME280;30542;47.928;2.138;2023-03-19T17:52:34;100766.28;;;19.44;56.27
44825;BME280;30542;47.928;2.138;2023-03-19T17:57:35;100780.53;;;19.50;56.37
44825;BME280;30542;47.928;2.138;2023-03-19T18:02:35;100792.25;;;19.49;56.47
44825;BME280;30542;47.928;2.138;2023-03-19T18:07:36;100793.00;;;19.44;56.59
44825;BME280;30542;47.928;2.138;2023-03-19T18:12:36;100809.09;;;19.49;56.76
44825;BME280;30542;47.928;2.138;2023-03-19T18:17:38;100806.44;;;19.49;56.41
44825;BME280;30542;47.928;2.138;2023-03-19T18:22:39;100815.75;;;19.47;56.52
44825;BME280;30542;47.928;2.138;2023-03-19T18:27:39;100828.63;;;19.50;56.85
44825;BME280;30542;47.928;2.138;2023-03-19T18:32:40;100827.81;;;19.49;56.91
44825;BME280;30542;47.928;2.138;2023-03-19T18:37:46;100829.97;;;19.52;56.59
44825;BME280;30542;47.928;2.138;2023-03-19T18:42:47;100828.94;;;19.53;57.13
44825;BME280;30542;47.928;2.138;2023-03-19T18:47:49;100847.38;;;19.55;56.97
44825;BME280;30542;47.928;2.138;2023-03-19T18:52:51;100847.91;;;19.57;56.87
44825;BME280;30542;47.928;2.138;2023-03-19T18:57:55;100864.53;;;19.59;57.03
44825;BME280;30542;47.928;2.138;2023-03-19T19:02:56;100873.78;;;19.51;57.44
44825;BME280;30542;47.928;2.138;2023-03-19T19:07:59;100885.84;;;19.54;57.55
44825;BME280;30542;47.928;2.138;2023-03-19T19:13:01;100845.91;;;19.25;57.84
44825;BME280;30542;47.928;2.138;2023-03-19T19:18:19;100880.72;;;19.52;57.98
44825;BME280;30542;47.928;2.138;2023-03-19T19:23:21;100891.41;;;19.52;57.65
44825;BME280;30542;47.928;2.138;2023-03-19T19:28:34;100902.69;;;19.54;57.95
44825;BME280;30542;47.928;2.138;2023-03-19T19:33:35;100896.16;;;19.45;57.75
44825;BME280;30542;47.928;2.138;2023-03-19T19:38:35;100908.75;;;19.50;57.80
44825;BME280;30542;47.928;2.138;2023-03-19T19:43:36;100906.00;;;19.45;57.55
44825;BME280;30542;47.928;2.138;2023-03-19T19:48:37;100910.38;;;19.51;57.40
44825;BME280;30542;47.928;2.138;2023-03-19T19:53:40;100900.50;;;19.51;57.35
44825;BME280;30542;47.928;2.138;2023-03-19T19:58:42;100910.69;;;19.54;57.15
44825;BME280;30542;47.928;2.138;2023-03-19T20:03:43;100921.94;;;19.56;57.38
44825;BME280;30542;47.928;2.138;2023-03-19T20:08:44;100931.00;;;19.55;57.04
44825;BME280;30542;47.928;2.138;2023-03-19T20:13:47;100930.47;;;19.53;57.27
44825;BME280;30542;47.928;2.138;2023-03-19T20:18:50;100942.75;;;19.54;56.82
44825;BME280;30542;47.928;2.138;2023-03-19T20:23:54;100940.81;;;19.50;57.06
44825;BME280;30542;47.928;2.138;2023-03-19T20:28:55;100939.75;;;19.51;56.88
44825;BME280;30542;47.928;2.138;2023-03-19T20:33:56;100952.13;;;19.57;56.74
44825;BME280;30542;47.928;2.138;2023-03-19T20:38:57;100950.53;;;19.56;56.63
44825;BME280;30542;47.928;2.138;2023-03-19T20:44:04;100933.84;;;19.49;56.61
44825;BME280;30542;47.928;2.138;2023-03-19T20:49:10;100956.44;;;19.58;56.77
44825;BME280;30542;47.928;2.138;2023-03-19T20:54:12;100960.28;;;19.62;56.62
44825;BME280;30542;47.928;2.138;2023-03-19T20:59:12;100961.06;;;19.63;56.46
44825;BME280;30542;47.928;2.138;2023-03-19T21:04:17;100961.06;;;19.63;56.55
44825;BME280;30542;47.928;2.138;2023-03-19T21:09:18;100959.66;;;19.60;56.57
44825;BME280;30542;47.928;2.138;2023-03-19T21:14:18;100963.13;;;19.60;56.41
44825;BME280;30542;47.928;2.138;2023-03-19T21:19:21;100973.63;;;19.62;56.05
44825;BME280;30542;47.928;2.138;2023-03-19T21:24:21;100987.81;;;19.63;56.29
44825;BME280;30542;47.928;2.138;2023-03-19T21:29:30;100981.94;;;19.66;55.99
44825;BME280;30542;47.928;2.138;2023-03-19T21:34:32;100989.72;;;19.67;55.98
44825;BME280;30542;47.928;2.138;2023-03-19T21:39:32;100979.09;;;19.55;55.77
44825;BME280;30542;47.928;2.138;2023-03-19T21:44:33;101004.38;;;19.65;56.06
44825;BME280;30542;47.928;2.138;2023-03-19T21:49:33;101012.31;;;19.59;55.77
44825;BME280;30542;47.928;2.138;2023-03-19T21:54:33;101019.66;;;19.52;55.85
44825;BME280;30542;47.928;2.138;2023-03-19T21:59:34;101025.19;;;19.46;56.08
44825;BME280;30542;47.928;2.138;2023-03-19T22:04:35;101025.34;;;19.39;56.13
44825;BME280;30542;47.928;2.138;2023-03-19T22:09:35;101035.94;;;19.34;56.40
44825;BME280;30542;47.928;2.138;2023-03-19T22:14:36;101036.16;;;19.32;56.43
44825;BME280;30542;47.928;2.138;2023-03-19T22:19:37;101031.31;;;19.29;56.41
44825;BME280;30542;47.928;2.138;2023-03-19T22:24:37;101025.66;;;19.26;56.74
44825;BME280;30542;47.928;2.138;2023-03-19T22:29:38;101029.84;;;19.22;56.39
44825;BME280;30542;47.928;2.138;2023-03-19T22:34:39;101025.78;;;19.19;56.45
44825;BME280;30542;47.928;2.138;2023-03-19T22:39:40;101025.47;;;19.16;56.66
44825;BME280;30542;47.928;2.138;2023-03-19T22:44:40;101018.97;;;19.11;56.40
44825;BME280;30542;47.928;2.138;2023-03-19T22:49:40;101018.44;;;19.09;56.39
44825;BME280;30542;47.928;2.138;2023-03-19T22:54:41;101019.50;;;19.08;56.31
44825;BME280;30542;47.928;2.138;2023-03-19T22:59:41;101010.41;;;19.09;55.91
44825;BME280;30542;47.928;2.138;2023-03-19T23:04:42;101008.00;;;19.08;55.69
44825;BME280;30542;47.928;2.138;2023-03-19T23:09:42;101003.69;;;19.07;55.77
44825;BME280;30542;47.928;2.138;2023-03-19T23:14:42;101009.28;;;19.05;55.78
44825;BME280;30542;47.928;2.138;2023-03-19T23:19:43;100989.44;;;19.01;55.60
44825;BME280;30542;47.928;2.138;2023-03-19T23:24:43;100991.31;;;19.01;55.80
44825;BME280;30542;47.928;2.138;2023-03-19T23:29:44;100995.84;;;19.00;55.11
44825;BME280;30542;47.928;2.138;2023-03-19T23:34:44;101006.19;;;18.97;55.41
44825;BME280;30542;47.928;2.138;2023-03-19T23:39:45;101004.00;;;18.94;55.00
44825;BME280;30542;47.928;2.138;2023-03-19T23:44:46;101006.84;;;18.87;55.24
44825;BME280;30542;47.928;2.138;2023-03-19T23:49:47;101012.63;;;18.84;54.80
44825;BME280;30542;47.928;2.138;2023-03-19T23:54:47;101009.63;;;18.80;55.18
44825;BME280;30542;47.928;2.138;2023-03-19T23:59:48;101011.72;;;18.78;54.98
